sensor_id;sensor_type;location;lat;lon;timestamp;P1;durP1;ratioP1;P2;durP2;ratioP2
9524;SDS011;15940;48.734;9.112;2022-07-29T00:00:47;5.10;;;4.67;;
9524;SDS011;15940;48.734;9.112;2022-07-29T00:03:14;4.73;;;4.30;;
9524;SDS011;15940;48.734;9.112;2022-07-29T00:05:41;5.23;;;4.83;;
9524;SDS011;15940;48.734;9.112;2022-07-29T00:08:08;5.50;;;4.90;;
9524;SDS011;15940;48.734;9.112;2022-07-29T00:10:35;5.97;;;4.70;;
9524;SDS011;15940;48.734;9.112;2022-07-29T00:13:02;5.40;;;4.93;;
9524;SDS011;15940;48.734;9.112;2022-07-29T00:15:30;5.17;;;4.77;;
9524;SDS011;15940;48.734;9.112;2022-07-29T00:17:57;5.23;;;4.80;;
9524;SDS011;15940;48.734;9.112;2022-07-29T00:20:24;6.67;;;4.53;;
9524;SDS011;15940;48.734;9.112;2022-07-29T00:22:51;4.70;;;4.40;;
9524;SDS011;15940;48.734;9.112;2022-07-29T00:25:18;5.60;;;4.70;;
9524;SDS011;15940;48.734;9.112;2022-07-29T00:27:45;5.00;;;4.60;;
9524;SDS011;15940;48.734;9.112;2022-07-29T00:30:12;4.77;;;4.37;;
9524;SDS011;15940;48.734;9.112;2022-07-29T00:32:41;4.77;;;4.37;;
9524;SDS011;15940;48.734;9.112;2022-07-29T00:35:08;4.50;;;4.20;;
9524;SDS011;15940;48.734;9.112;2022-07-29T00:37:53;5.20;;;4.43;;
9524;SDS011;15940;48.734;9.112;2022-07-29T00:40:20;5.23;;;4.77;;
9524;SDS011;15940;48.734;9.112;2022-07-29T00:42:49;5.00;;;4.60;;
9524;SDS011;15940;48.734;9.112;2022-07-29T00:45:18;5.00;;;4.70;;
9524;SDS011;15940;48.734;9.112;2022-07-29T00:47:48;4.83;;;4.43;;
9524;SDS011;15940;48.734;9.112;2022-07-29T00:50:15;4.50;;;4.10;;
9524;SDS011;15940;48.734;9.112;2022-07-29T00:52:42;4.83;;;4.43;;
9524;SDS011;15940;48.734;9.112;2022-07-29T00:55:11;4.37;;;3.97;;
9524;SDS011;15940;48.734;9.112;2022-07-29T00:57:39;4.83;;;4.40;;
9524;SDS011;15940;48.734;9.112;2022-07-29T01:00:08;4.57;;;4.20;;
9524;SDS011;15940;48.734;9.112;2022-07-29T01:02:39;4.60;;;4.20;;
9524;SDS011;15940;48.734;9.112;2022-07-29T01:05:08;4.60;;;4.20;;
9524;SDS011;15940;48.734;9.112;2022-07-29T01:07:37;6.13;;;4.37;;
9524;SDS011;15940;48.734;9.112;2022-07-29T01:10:05;4.67;;;4.27;;
9524;SDS011;15940;48.734;9.112;2022-07-29T01:12:35;4.97;;;4.33;;
9524;SDS011;15940;48.734;9.112;2022-07-29T01:15:04;5.33;;;4.30;;
9524;SDS011;15940;48.734;9.112;2022-07-29T01:17:34;5.33;;;4.30;;
9524;SDS011;15940;48.734;9.112;2022-07-29T01:20:10;4.03;;;3.73;;
9524;SDS011;15940;48.734;9.112;2022-07-29T01:22:49;4.57;;;4.27;;
9524;SDS011;15940;48.734;9.112;2022-07-29T01:25:45;4.70;;;3.87;;
9524;SDS011;15940;48.734;9.112;2022-07-29T01:28:39;4.20;;;3.80;;
9524;SDS011;15940;48.734;9.112;2022-07-29T01:31:25;4.20;;;3.80;;
9524;SDS011;15940;48.734;9.112;2022-07-29T01:34:01;4.13;;;3.83;;
9524;SDS011;15940;48.734;9.112;2022-07-29T01:36:33;4.20;;;3.90;;
9524;SDS011;15940;48.734;9.112;2022-07-29T01:39:05;3.90;;;3.60;;
9524;SDS011;15940;48.734;9.112;2022-07-29T01:41:36;4.33;;;3.10;;
9524;SDS011;15940;48.734;9.112;2022-07-29T01:44:17;4.00;;;3.70;;
9524;SDS011;15940;48.734;9.112;2022-07-29T01:46:50;3.77;;;3.47;;
9524;SDS011;15940;48.734;9.112;2022-07-29T01:49:24;3.80;;;3.50;;
9524;SDS011;15940;48.734;9.112;2022-07-29T01:51:57;3.53;;;3.33;;
9524;SDS011;15940;48.734;9.112;2022-07-29T01:54:30;4.37;;;3.37;;
9524;SDS011;15940;48.734;9.112;2022-07-29T01:57:03;4.03;;;3.10;;
9524;SDS011;15940;48.734;9.112;2022-07-29T01:59:34;3.27;;;3.00;;
9524;SDS011;15940;48.734;9.112;2022-07-29T02:02:03;3.30;;;3.00;;
9524;SDS011;15940;48.734;9.112;2022-07-29T02:04:33;4.03;;;3.07;;
9524;SDS011;15940;48.734;9.112;2022-07-29T02:07:05;3.50;;;2.97;;
9524;SDS011;15940;48.734;9.112;2022-07-29T02:09:34;3.23;;;3.00;;
9524;SDS011;15940;48.734;9.112;2022-07-29T02:12:04;3.47;;;2.97;;
9524;SDS011;15940;48.734;9.112;2022-07-29T02:14:36;3.50;;;3.20;;
9524;SDS011;15940;48.734;9.112;2022-07-29T02:17:08;3.63;;;3.20;;
9524;SDS011;15940;48.734;9.112;2022-07-29T02:19:38;3.53;;;3.23;;
9524;SDS011;15940;48.734;9.112;2022-07-29T02:22:08;3.33;;;3.13;;
9524;SDS011;15940;48.734;9.112;2022-07-29T02:24:36;5.03;;;3.70;;
9524;SDS011;15940;48.734;9.112;2022-07-29T02:27:05;4.07;;;3.60;;
9524;SDS011;15940;48.734;9.112;2022-07-29T02:29:35;5.17;;;3.23;;
9524;SDS011;15940;48.734;9.112;2022-07-29T02:32:05;3.47;;;3.17;;
9524;SDS011;15940;48.734;9.112;2022-07-29T02:34:34;3.77;;;3.47;;
9524;SDS011;15940;48.734;9.112;2022-07-29T02:37:04;3.47;;;3.20;;
9524;SDS011;15940;48.734;9.112;2022-07-29T02:39:31;3.20;;;3.00;;
9524;SDS011;15940;48.734;9.112;2022-07-29T02:42:02;3.63;;;3.43;;
9524;SDS011;15940;48.734;9.112;2022-07-29T02:44:32;3.57;;;3.20;;
9524;SDS011;15940;48.734;9.112;2022-07-29T02:47:03;3.67;;;3.37;;
9524;SDS011;15940;48.734;9.112;2022-07-29T02:49:40;3.80;;;3.00;;
9524;SDS011;15940;48.734;9.112;2022-07-29T02:52:17;3.33;;;3.03;;
9524;SDS011;15940;48.734;9.112;2022-07-29T02:54:50;4.47;;;3.37;;
9524;SDS011;15940;48.734;9.112;2022-07-29T02:57:22;3.93;;;3.53;;
9524;SDS011;15940;48.734;9.112;2022-07-29T03:00:01;4.40;;;3.90;;
9524;SDS011;15940;48.734;9.112;2022-07-29T03:02:33;4.33;;;3.93;;
9524;SDS011;15940;48.734;9.112;2022-07-29T03:05:04;3.47;;;3.07;;
9524;SDS011;15940;48.734;9.112;2022-07-29T03:07:34;4.70;;;4.13;;
9524;SDS011;15940;48.734;9.112;2022-07-29T03:10:03;7.50;;;4.13;;
9524;SDS011;15940;48.734;9.112;2022-07-29T03:12:32;4.73;;;3.80;;
9524;SDS011;15940;48.734;9.112;2022-07-29T03:15:01;4.13;;;3.70;;
9524;SDS011;15940;48.734;9.112;2022-07-29T03:17:29;5.37;;;4.13;;
9524;SDS011;15940;48.734;9.112;2022-07-29T03:19:57;4.00;;;3.60;;
9524;SDS011;15940;48.734;9.112;2022-07-29T03:22:25;5.40;;;3.60;;
9524;SDS011;15940;48.734;9.112;2022-07-29T03:24:53;4.53;;;4.10;;
9524;SDS011;15940;48.734;9.112;2022-07-29T03:27:20;3.60;;;3.30;;
9524;SDS011;15940;48.734;9.112;2022-07-29T03:29:47;3.70;;;3.40;;
9524;SDS011;15940;48.734;9.112;2022-07-29T03:32:15;3.83;;;3.47;;
9524;SDS011;15940;48.734;9.112;2022-07-29T03:34:42;3.47;;;3.13;;
9524;SDS011;15940;48.734;9.112;2022-07-29T03:37:09;3.47;;;3.27;;
9524;SDS011;15940;48.734;9.112;2022-07-29T03:39:38;3.33;;;3.13;;
9524;SDS011;15940;48.734;9.112;2022-07-29T03:42:08;3.80;;;3.47;;
9524;SDS011;15940;48.734;9.112;2022-07-29T03:44:40;3.63;;;3.13;;
9524;SDS011;15940;48.734;9.112;2022-07-29T03:47:10;3.47;;;3.27;;
9524;SDS011;15940;48.734;9.112;2022-07-29T03:49:41;2.93;;;2.73;;
9524;SDS011;15940;48.734;9.112;2022-07-29T03:52:10;3.40;;;3.20;;
9524;SDS011;15940;48.734;9.112;2022-07-29T03:54:37;3.93;;;3.33;;
9524;SDS011;15940;48.734;9.112;2022-07-29T03:57:05;4.13;;;3.50;;
9524;SDS011;15940;48.734;9.112;2022-07-29T03:59:36;3.53;;;3.30;;
9524;SDS011;15940;48.734;9.112;2022-07-29T04:02:04;3.30;;;3.10;;
9524;SDS011;15940;48.734;9.112;2022-07-29T04:04:34;3.27;;;3.07;;
9524;SDS011;15940;48.734;9.112;2022-07-29T04:07:03;3.73;;;3.43;;
9524;SDS011;15940;48.734;9.112;2022-07-29T04:09:31;3.37;;;3.00;;
9524;SDS011;15940;48.734;9.112;2022-07-29T04:11:58;3.60;;;3.30;;
9524;SDS011;15940;48.734;9.112;2022-07-29T04:14:25;4.20;;;3.00;;
9524;SDS011;15940;48.734;9.112;2022-07-29T04:16:52;3.50;;;3.30;;
9524;SDS011;15940;48.734;9.112;2022-07-29T04:19:19;3.40;;;3.10;;
9524;SDS011;15940;48.734;9.112;2022-07-29T04:21:46;3.33;;;2.90;;
9524;SDS011;15940;48.734;9.112;2022-07-29T04:24:14;3.47;;;3.17;;
9524;SDS011;15940;48.734;9.112;2022-07-29T04:26:41;4.90;;;3.20;;
9524;SDS011;15940;48.734;9.112;2022-07-29T04:29:08;3.43;;;3.13;;
9524;SDS011;15940;48.734;9.112;2022-07-29T04:31:36;3.20;;;3.00;;
9524;SDS011;15940;48.734;9.112;2022-07-29T04:34:03;2.90;;;2.70;;
9524;SDS011;15940;48.734;9.112;2022-07-29T04:36:30;3.00;;;2.80;;
9524;SDS011;15940;48.734;9.112;2022-07-29T04:38:57;2.87;;;2.67;;
9524;SDS011;15940;48.734;9.112;2022-07-29T04:41:27;2.93;;;2.73;;
9524;SDS011;15940;48.734;9.112;2022-07-29T04:43:54;3.20;;;3.00;;
9524;SDS011;15940;48.734;9.112;2022-07-29T04:46:21;2.80;;;2.60;;
9524;SDS011;15940;48.734;9.112;2022-07-29T04:48:48;2.67;;;2.47;;
9524;SDS011;15940;48.734;9.112;2022-07-29T04:51:15;2.63;;;2.33;;
9524;SDS011;15940;48.734;9.112;2022-07-29T04:53:42;2.70;;;2.50;;
9524;SDS011;15940;48.734;9.112;2022-07-29T04:56:10;2.50;;;2.30;;
9524;SDS011;15940;48.734;9.112;2022-07-29T04:58:38;2.50;;;2.30;;
9524;SDS011;15940;48.734;9.112;2022-07-29T05:01:05;2.80;;;2.60;;
9524;SDS011;15940;48.734;9.112;2022-07-29T05:03:32;2.87;;;2.40;;
9524;SDS011;15940;48.734;9.112;2022-07-29T05:05:59;2.33;;;2.13;;
9524;SDS011;15940;48.734;9.112;2022-07-29T05:08:26;2.30;;;2.20;;
9524;SDS011;15940;48.734;9.112;2022-07-29T05:10:53;3.10;;;2.20;;
9524;SDS011;15940;48.734;9.112;2022-07-29T05:13:20;3.00;;;2.10;;
9524;SDS011;15940;48.734;9.112;2022-07-29T05:15:48;2.17;;;2.07;;
9524;SDS011;15940;48.734;9.112;2022-07-29T05:18:15;3.07;;;2.17;;
9524;SDS011;15940;48.734;9.112;2022-07-29T05:20:42;2.27;;;2.17;;
9524;SDS011;15940;48.734;9.112;2022-07-29T05:23:09;2.00;;;1.90;;
9524;SDS011;15940;48.734;9.112;2022-07-29T05:25:38;2.30;;;2.20;;
9524;SDS011;15940;48.734;9.112;2022-07-29T05:28:05;2.47;;;2.27;;
9524;SDS011;15940;48.734;9.112;2022-07-29T05:30:32;3.77;;;2.63;;
9524;SDS011;15940;48.734;9.112;2022-07-29T05:33:00;2.50;;;2.30;;
9524;SDS011;15940;48.734;9.112;2022-07-29T05:35:27;2.50;;;2.30;;
9524;SDS011;15940;48.734;9.112;2022-07-29T05:37:54;3.47;;;2.57;;
9524;SDS011;15940;48.734;9.112;2022-07-29T05:40:21;3.57;;;2.70;;
9524;SDS011;15940;48.734;9.112;2022-07-29T05:42:48;3.20;;;2.50;;
9524;SDS011;15940;48.734;9.112;2022-07-29T05:45:15;3.30;;;2.37;;
9524;SDS011;15940;48.734;9.112;2022-07-29T05:47:42;3.53;;;2.57;;
9524;SDS011;15940;48.734;9.112;2022-07-29T05:50:10;3.77;;;2.50;;
9524;SDS011;15940;48.734;9.112;2022-07-29T05:52:37;2.43;;;2.33;;
9524;SDS011;15940;48.734;9.112;2022-07-29T05:55:04;3.60;;;2.40;;
9524;SDS011;15940;48.734;9.112;2022-07-29T05:57:32;3.00;;;2.80;;
9524;SDS011;15940;48.734;9.112;2022-07-29T05:59:59;3.30;;;2.40;;
9524;SDS011;15940;48.734;9.112;2022-07-29T06:02:26;2.83;;;2.63;;
9524;SDS011;15940;48.734;9.112;2022-07-29T06:04:53;2.60;;;2.40;;
9524;SDS011;15940;48.734;9.112;2022-07-29T06:07:21;2.83;;;2.60;;
9524;SDS011;15940;48.734;9.112;2022-07-29T06:09:48;3.07;;;2.57;;
9524;SDS011;15940;48.734;9.112;2022-07-29T06:12:15;2.67;;;2.47;;
9524;SDS011;15940;48.734;9.112;2022-07-29T06:14:42;2.67;;;2.47;;
9524;SDS011;15940;48.734;9.112;2022-07-29T06:17:09;3.03;;;2.60;;
9524;SDS011;15940;48.734;9.112;2022-07-29T06:19:37;3.13;;;2.80;;
9524;SDS011;15940;48.734;9.112;2022-07-29T06:22:04;2.90;;;2.70;;
9524;SDS011;15940;48.734;9.112;2022-07-29T06:24:32;3.53;;;3.10;;
9524;SDS011;15940;48.734;9.112;2022-07-29T06:26:59;4.43;;;3.13;;
9524;SDS011;15940;48.734;9.112;2022-07-29T06:29:26;5.33;;;2.83;;
9524;SDS011;15940;48.734;9.112;2022-07-29T06:31:53;2.80;;;2.60;;
9524;SDS011;15940;48.734;9.112;2022-07-29T06:34:20;3.57;;;2.70;;
9524;SDS011;15940;48.734;9.112;2022-07-29T06:36:47;3.00;;;2.80;;
9524;SDS011;15940;48.734;9.112;2022-07-29T06:39:14;3.00;;;2.70;;
9524;SDS011;15940;48.734;9.112;2022-07-29T06:41:45;2.93;;;2.73;;
9524;SDS011;15940;48.734;9.112;2022-07-29T06:44:13;2.73;;;2.53;;
9524;SDS011;15940;48.734;9.112;2022-07-29T06:46:40;3.23;;;3.00;;
9524;SDS011;15940;48.734;9.112;2022-07-29T06:49:08;4.80;;;2.93;;
9524;SDS011;15940;48.734;9.112;2022-07-29T06:51:37;6.77;;;3.03;;
9524;SDS011;15940;48.734;9.112;2022-07-29T06:54:04;2.73;;;2.53;;
9524;SDS011;15940;48.734;9.112;2022-07-29T06:56:31;2.70;;;2.50;;
9524;SDS011;15940;48.734;9.112;2022-07-29T06:59:03;2.93;;;2.73;;
9524;SDS011;15940;48.734;9.112;2022-07-29T07:01:30;3.23;;;2.80;;
9524;SDS011;15940;48.734;9.112;2022-07-29T07:03:57;3.73;;;2.97;;
9524;SDS011;15940;48.734;9.112;2022-07-29T07:06:24;3.40;;;2.77;;
9524;SDS011;15940;48.734;9.112;2022-07-29T07:08:51;2.70;;;2.50;;
9524;SDS011;15940;48.734;9.112;2022-07-29T07:11:18;2.97;;;2.70;;
9524;SDS011;15940;48.734;9.112;2022-07-29T07:13:45;2.73;;;2.50;;
9524;SDS011;15940;48.734;9.112;2022-07-29T07:16:14;2.73;;;2.50;;
9524;SDS011;15940;48.734;9.112;2022-07-29T07:18:41;3.17;;;2.60;;
9524;SDS011;15940;48.734;9.112;2022-07-29T07:21:10;2.90;;;2.70;;
9524;SDS011;15940;48.734;9.112;2022-07-29T07:23:37;3.13;;;2.80;;
9524;SDS011;15940;48.734;9.112;2022-07-29T07:26:04;3.40;;;3.00;;
9524;SDS011;15940;48.734;9.112;2022-07-29T07:28:31;4.23;;;2.77;;
9524;SDS011;15940;48.734;9.112;2022-07-29T07:30:58;3.20;;;2.87;;
9524;SDS011;15940;48.734;9.112;2022-07-29T07:33:26;4.57;;;2.70;;
9524;SDS011;15940;48.734;9.112;2022-07-29T07:35:53;4.07;;;2.73;;
9524;SDS011;15940;48.734;9.112;2022-07-29T07:38:20;3.20;;;2.90;;
9524;SDS011;15940;48.734;9.112;2022-07-29T07:40:47;4.00;;;2.90;;
9524;SDS011;15940;48.734;9.112;2022-07-29T07:43:14;3.13;;;2.80;;
9524;SDS011;15940;48.734;9.112;2022-07-29T07:45:41;3.23;;;2.90;;
9524;SDS011;15940;48.734;9.112;2022-07-29T07:48:08;3.40;;;3.10;;
9524;SDS011;15940;48.734;9.112;2022-07-29T07:50:36;3.27;;;2.80;;
9524;SDS011;15940;48.734;9.112;2022-07-29T07:53:03;3.93;;;3.00;;
9524;SDS011;15940;48.734;9.112;2022-07-29T07:55:30;4.40;;;3.00;;
9524;SDS011;15940;48.734;9.112;2022-07-29T07:57:57;5.00;;;2.53;;
9524;SDS011;15940;48.734;9.112;2022-07-29T08:00:24;3.07;;;2.77;;
9524;SDS011;15940;48.734;9.112;2022-07-29T08:02:51;6.13;;;2.93;;
9524;SDS011;15940;48.734;9.112;2022-07-29T08:05:19;4.03;;;3.10;;
9524;SDS011;15940;48.734;9.112;2022-07-29T08:07:47;3.10;;;2.80;;
9524;SDS011;15940;48.734;9.112;2022-07-29T08:10:14;3.73;;;2.87;;
9524;SDS011;15940;48.734;9.112;2022-07-29T08:13:03;3.97;;;2.87;;
9524;SDS011;15940;48.734;9.112;2022-07-29T08:15:30;3.17;;;2.87;;
9524;SDS011;15940;48.734;9.112;2022-07-29T08:17:57;5.87;;;3.00;;
9524;SDS011;15940;48.734;9.112;2022-07-29T08:20:25;3.27;;;2.70;;
9524;SDS011;15940;48.734;9.112;2022-07-29T08:22:53;3.17;;;2.90;;
9524;SDS011;15940;48.734;9.112;2022-07-29T08:25:20;6.17;;;3.00;;
9524;SDS011;15940;48.734;9.112;2022-07-29T08:27:47;9.07;;;3.20;;
9524;SDS011;15940;48.734;9.112;2022-07-29T08:30:14;2.90;;;2.70;;
9524;SDS011;15940;48.734;9.112;2022-07-29T08:32:41;5.07;;;2.90;;
9524;SDS011;15940;48.734;9.112;2022-07-29T08:35:08;2.90;;;2.70;;
9524;SDS011;15940;48.734;9.112;2022-07-29T08:37:35;5.00;;;3.27;;
9524;SDS011;15940;48.734;9.112;2022-07-29T08:40:04;4.67;;;3.00;;
9524;SDS011;15940;48.734;9.112;2022-07-29T08:42:32;3.97;;;2.90;;
9524;SDS011;15940;48.734;9.112;2022-07-29T08:44:59;5.20;;;2.90;;
9524;SDS011;15940;48.734;9.112;2022-07-29T08:47:26;6.50;;;3.23;;
9524;SDS011;15940;48.734;9.112;2022-07-29T08:49:54;3.30;;;3.00;;
9524;SDS011;15940;48.734;9.112;2022-07-29T08:52:21;4.43;;;3.10;;
9524;SDS011;15940;48.734;9.112;2022-07-29T08:54:52;3.20;;;3.00;;
9524;SDS011;15940;48.734;9.112;2022-07-29T08:57:21;8.90;;;3.20;;
9524;SDS011;15940;48.734;9.112;2022-07-29T08:59:50;4.53;;;3.00;;
9524;SDS011;15940;48.734;9.112;2022-07-29T09:02:19;6.40;;;3.20;;
9524;SDS011;15940;48.734;9.112;2022-07-29T09:04:48;6.00;;;3.00;;
9524;SDS011;15940;48.734;9.112;2022-07-29T09:07:16;3.53;;;3.10;;
9524;SDS011;15940;48.734;9.112;2022-07-29T09:09:44;5.50;;;3.10;;
9524;SDS011;15940;48.734;9.112;2022-07-29T09:12:11;5.60;;;3.27;;
9524;SDS011;15940;48.734;9.112;2022-07-29T09:14:40;4.13;;;3.30;;
9524;SDS011;15940;48.734;9.112;2022-07-29T09:17:07;3.87;;;3.07;;
9524;SDS011;15940;48.734;9.112;2022-07-29T09:19:35;5.03;;;3.40;;
9524;SDS011;15940;48.734;9.112;2022-07-29T09:22:04;5.47;;;3.30;;
9524;SDS011;15940;48.734;9.112;2022-07-29T09:24:39;5.67;;;3.30;;
9524;SDS011;15940;48.734;9.112;2022-07-29T09:27:18;4.60;;;3.20;;
9524;SDS011;15940;48.734;9.112;2022-07-29T09:29:48;5.30;;;3.10;;
9524;SDS011;15940;48.734;9.112;2022-07-29T09:32:23;4.07;;;3.27;;
9524;SDS011;15940;48.734;9.112;2022-07-29T09:34:52;4.23;;;3.17;;
9524;SDS011;15940;48.734;9.112;2022-07-29T09:37:43;3.90;;;3.10;;
9524;SDS011;15940;48.734;9.112;2022-07-29T09:40:12;3.87;;;3.17;;
9524;SDS011;15940;48.734;9.112;2022-07-29T09:42:42;6.77;;;3.20;;
9524;SDS011;15940;48.734;9.112;2022-07-29T09:45:11;5.93;;;3.60;;
9524;SDS011;15940;48.734;9.112;2022-07-29T09:47:51;4.00;;;3.30;;
9524;SDS011;15940;48.734;9.112;2022-07-29T09:50:19;3.87;;;3.47;;
9524;SDS011;15940;48.734;9.112;2022-07-29T09:52:49;4.60;;;3.30;;
9524;SDS011;15940;48.734;9.112;2022-07-29T09:55:18;9.40;;;3.30;;
9524;SDS011;15940;48.734;9.112;2022-07-29T09:57:46;13.60;;;3.40;;
9524;SDS011;15940;48.734;9.112;2022-07-29T10:00:15;3.50;;;3.20;;
9524;SDS011;15940;48.734;9.112;2022-07-29T10:02:45;3.33;;;3.00;;
9524;SDS011;15940;48.734;9.112;2022-07-29T10:05:17;4.20;;;3.50;;
9524;SDS011;15940;48.734;9.112;2022-07-29T10:07:49;7.50;;;3.40;;
9524;SDS011;15940;48.734;9.112;2022-07-29T10:10:21;5.70;;;3.30;;
9524;SDS011;15940;48.734;9.112;2022-07-29T10:12:50;6.83;;;3.50;;
9524;SDS011;15940;48.734;9.112;2022-07-29T10:15:22;8.00;;;3.00;;
9524;SDS011;15940;48.734;9.112;2022-07-29T10:17:51;3.63;;;3.17;;
9524;SDS011;15940;48.734;9.112;2022-07-29T10:20:19;6.63;;;3.73;;
9524;SDS011;15940;48.734;9.112;2022-07-29T10:22:46;6.37;;;3.27;;
9524;SDS011;15940;48.734;9.112;2022-07-29T10:25:14;5.90;;;3.40;;
9524;SDS011;15940;48.734;9.112;2022-07-29T10:27:42;3.67;;;3.40;;
9524;SDS011;15940;48.734;9.112;2022-07-29T10:30:10;4.43;;;3.57;;
9524;SDS011;15940;48.734;9.112;2022-07-29T10:32:47;6.70;;;3.60;;
9524;SDS011;15940;48.734;9.112;2022-07-29T10:35:59;7.87;;;3.77;;
9524;SDS011;15940;48.734;9.112;2022-07-29T10:38:44;5.53;;;3.90;;
9524;SDS011;15940;48.734;9.112;2022-07-29T10:41:29;6.83;;;4.00;;
9524;SDS011;15940;48.734;9.112;2022-07-29T10:44:22;10.70;;;4.87;;
9524;SDS011;15940;48.734;9.112;2022-07-29T10:46:51;9.17;;;4.30;;
9524;SDS011;15940;48.734;9.112;2022-07-29T10:49:20;8.80;;;4.27;;
9524;SDS011;15940;48.734;9.112;2022-07-29T10:52:00;13.83;;;5.33;;
9524;SDS011;15940;48.734;9.112;2022-07-29T10:54:39;14.13;;;6.03;;
9524;SDS011;15940;48.734;9.112;2022-07-29T10:57:20;9.40;;;5.00;;
9524;SDS011;15940;48.734;9.112;2022-07-29T10:59:52;10.97;;;6.10;;
9524;SDS011;15940;48.734;9.112;2022-07-29T11:02:55;8.33;;;6.10;;
9524;SDS011;15940;48.734;9.112;2022-07-29T11:05:24;15.77;;;7.40;;
9524;SDS011;15940;48.734;9.112;2022-07-29T11:10:49;9.53;;;5.70;;
9524;SDS011;15940;48.734;9.112;2022-07-29T11:16:18;9.60;;;6.33;;
9524;SDS011;15940;48.734;9.112;2022-07-29T11:21:49;10.37;;;8.03;;
9524;SDS011;15940;48.734;9.112;2022-07-29T11:24:18;12.73;;;8.60;;
9524;SDS011;15940;48.734;9.112;2022-07-29T11:29:40;9.87;;;8.07;;
9524;SDS011;15940;48.734;9.112;2022-07-29T11:32:18;13.33;;;8.93;;
9524;SDS011;15940;48.734;9.112;2022-07-29T11:34:46;9.97;;;8.50;;
9524;SDS011;15940;48.734;9.112;2022-07-29T11:37:19;10.30;;;8.70;;
9524;SDS011;15940;48.734;9.112;2022-07-29T11:42:44;9.13;;;7.87;;
9524;SDS011;15940;48.734;9.112;2022-07-29T11:45:17;9.23;;;8.30;;
9524;SDS011;15940;48.734;9.112;2022-07-29T11:47:57;8.20;;;7.23;;
9524;SDS011;15940;48.734;9.112;2022-07-29T11:50:32;7.87;;;6.50;;
9524;SDS011;15940;48.734;9.112;2022-07-29T11:53:09;9.73;;;7.37;;
9524;SDS011;15940;48.734;9.112;2022-07-29T11:55:39;8.50;;;7.60;;
9524;SDS011;15940;48.734;9.112;2022-07-29T11:58:07;10.10;;;7.47;;
9524;SDS011;15940;48.734;9.112;2022-07-29T12:00:35;10.83;;;8.07;;
9524;SDS011;15940;48.734;9.112;2022-07-29T12:03:04;8.07;;;7.27;;
9524;SDS011;15940;48.734;9.112;2022-07-29T12:05:35;12.07;;;7.30;;
9524;SDS011;15940;48.734;9.112;2022-07-29T12:08:14;13.57;;;8.07;;
9524;SDS011;15940;48.734;9.112;2022-07-29T12:10:44;7.63;;;6.97;;
9524;SDS011;15940;48.734;9.112;2022-07-29T12:13:12;8.13;;;6.90;;
9524;SDS011;15940;48.734;9.112;2022-07-29T12:15:41;7.97;;;7.00;;
9524;SDS011;15940;48.734;9.112;2022-07-29T12:18:17;8.33;;;6.20;;
9524;SDS011;15940;48.734;9.112;2022-07-29T12:20:46;8.47;;;6.20;;
9524;SDS011;15940;48.734;9.112;2022-07-29T12:23:15;6.30;;;5.70;;
9524;SDS011;15940;48.734;9.112;2022-07-29T12:25:43;7.20;;;5.93;;
9524;SDS011;15940;48.734;9.112;2022-07-29T12:28:11;7.37;;;6.10;;
9524;SDS011;15940;48.734;9.112;2022-07-29T12:30:44;6.80;;;6.10;;
9524;SDS011;15940;48.734;9.112;2022-07-29T12:33:15;8.20;;;6.27;;
9524;SDS011;15940;48.734;9.112;2022-07-29T12:35:47;10.80;;;6.60;;
9524;SDS011;15940;48.734;9.112;2022-07-29T12:38:17;8.10;;;6.30;;
9524;SDS011;15940;48.734;9.112;2022-07-29T12:40:45;6.80;;;6.20;;
9524;SDS011;15940;48.734;9.112;2022-07-29T12:43:14;6.73;;;6.03;;
9524;SDS011;15940;48.734;9.112;2022-07-29T12:45:43;9.03;;;6.27;;
9524;SDS011;15940;48.734;9.112;2022-07-29T12:48:12;7.10;;;6.40;;
9524;SDS011;15940;48.734;9.112;2022-07-29T12:50:56;7.57;;;6.20;;
9524;SDS011;15940;48.734;9.112;2022-07-29T12:53:26;8.30;;;6.37;;
9524;SDS011;15940;48.734;9.112;2022-07-29T12:55:54;9.40;;;6.53;;
9524;SDS011;15940;48.734;9.112;2022-07-29T12:58:30;7.07;;;6.37;;
9524;SDS011;15940;48.734;9.112;2022-07-29T13:01:08;6.97;;;6.27;;
9524;SDS011;15940;48.734;9.112;2022-07-29T13:03:47;7.77;;;6.30;;
9524;SDS011;15940;48.734;9.112;2022-07-29T13:06:27;7.30;;;6.60;;
9524;SDS011;15940;48.734;9.112;2022-07-29T13:09:05;7.07;;;5.73;;
9524;SDS011;15940;48.734;9.112;2022-07-29T13:11:36;9.40;;;6.20;;
9524;SDS011;15940;48.734;9.112;2022-07-29T13:14:05;6.23;;;5.53;;
9524;SDS011;15940;48.734;9.112;2022-07-29T13:16:35;7.47;;;5.50;;
9524;SDS011;15940;48.734;9.112;2022-07-29T13:19:04;6.97;;;5.23;;
9524;SDS011;15940;48.734;9.112;2022-07-29T13:21:34;6.07;;;5.47;;
9524;SDS011;15940;48.734;9.112;2022-07-29T13:24:01;10.57;;;6.00;;
9524;SDS011;15940;48.734;9.112;2022-07-29T13:26:31;7.80;;;6.33;;
9524;SDS011;15940;48.734;9.112;2022-07-29T13:28:58;7.13;;;6.43;;
9524;SDS011;15940;48.734;9.112;2022-07-29T13:31:25;6.37;;;5.87;;
9524;SDS011;15940;48.734;9.112;2022-07-29T13:33:52;7.70;;;5.93;;
9524;SDS011;15940;48.734;9.112;2022-07-29T13:36:19;6.97;;;6.27;;
9524;SDS011;15940;48.734;9.112;2022-07-29T13:38:46;7.63;;;6.93;;
9524;SDS011;15940;48.734;9.112;2022-07-29T13:41:13;8.83;;;7.03;;
9524;SDS011;15940;48.734;9.112;2022-07-29T13:43:41;8.23;;;7.37;;
9524;SDS011;15940;48.734;9.112;2022-07-29T13:46:08;9.27;;;8.37;;
9524;SDS011;15940;48.734;9.112;2022-07-29T13:48:35;8.40;;;7.67;;
9524;SDS011;15940;48.734;9.112;2022-07-29T13:51:02;14.33;;;8.80;;
9524;SDS011;15940;48.734;9.112;2022-07-29T13:53:29;8.77;;;8.10;;
9524;SDS011;15940;48.734;9.112;2022-07-29T13:55:56;12.53;;;8.03;;
9524;SDS011;15940;48.734;9.112;2022-07-29T13:58:23;11.10;;;9.37;;
9524;SDS011;15940;48.734;9.112;2022-07-29T14:00:51;12.60;;;9.20;;
9524;SDS011;15940;48.734;9.112;2022-07-29T14:03:18;11.67;;;8.07;;
9524;SDS011;15940;48.734;9.112;2022-07-29T14:05:45;21.30;;;9.07;;
9524;SDS011;15940;48.734;9.112;2022-07-29T14:08:12;10.80;;;7.50;;
9524;SDS011;15940;48.734;9.112;2022-07-29T14:10:40;10.57;;;7.07;;
9524;SDS011;15940;48.734;9.112;2022-07-29T14:13:07;9.17;;;7.57;;
9524;SDS011;15940;48.734;9.112;2022-07-29T14:15:34;9.90;;;8.13;;
9524;SDS011;15940;48.734;9.112;2022-07-29T14:18:02;7.97;;;7.27;;
9524;SDS011;15940;48.734;9.112;2022-07-29T14:20:29;9.70;;;7.60;;
9524;SDS011;15940;48.734;9.112;2022-07-29T14:22:57;10.93;;;7.20;;
9524;SDS011;15940;48.734;9.112;2022-07-29T14:25:24;8.07;;;6.83;;
9524;SDS011;15940;48.734;9.112;2022-07-29T14:27:51;9.00;;;6.97;;
9524;SDS011;15940;48.734;9.112;2022-07-29T14:30:19;7.77;;;7.07;;
9524;SDS011;15940;48.734;9.112;2022-07-29T14:32:46;10.40;;;7.83;;
9524;SDS011;15940;48.734;9.112;2022-07-29T14:35:14;7.83;;;6.93;;
9524;SDS011;15940;48.734;9.112;2022-07-29T14:37:41;9.07;;;6.90;;
9524;SDS011;15940;48.734;9.112;2022-07-29T14:40:09;7.63;;;6.57;;
9524;SDS011;15940;48.734;9.112;2022-07-29T14:42:36;9.27;;;5.60;;
9524;SDS011;15940;48.734;9.112;2022-07-29T14:45:05;7.37;;;6.13;;
9524;SDS011;15940;48.734;9.112;2022-07-29T14:47:35;8.47;;;6.57;;
9524;SDS011;15940;48.734;9.112;2022-07-29T14:50:04;6.70;;;5.93;;
9524;SDS011;15940;48.734;9.112;2022-07-29T14:52:34;7.83;;;7.03;;
9524;SDS011;15940;48.734;9.112;2022-07-29T14:55:01;8.77;;;6.40;;
9524;SDS011;15940;48.734;9.112;2022-07-29T14:57:29;8.00;;;7.30;;
9524;SDS011;15940;48.734;9.112;2022-07-29T14:59:56;8.90;;;6.73;;
9524;SDS011;15940;48.734;9.112;2022-07-29T15:02:23;10.27;;;6.40;;
9524;SDS011;15940;48.734;9.112;2022-07-29T15:04:50;6.20;;;5.67;;
9524;SDS011;15940;48.734;9.112;2022-07-29T15:07:17;6.47;;;5.87;;
9524;SDS011;15940;48.734;9.112;2022-07-29T15:09:45;7.10;;;5.53;;
9524;SDS011;15940;48.734;9.112;2022-07-29T15:12:12;6.07;;;5.57;;
9524;SDS011;15940;48.734;9.112;2022-07-29T15:14:40;6.20;;;5.53;;
9524;SDS011;15940;48.734;9.112;2022-07-29T15:17:07;7.60;;;6.07;;
9524;SDS011;15940;48.734;9.112;2022-07-29T15:19:34;6.37;;;5.60;;
9524;SDS011;15940;48.734;9.112;2022-07-29T15:22:01;6.80;;;6.03;;
9524;SDS011;15940;48.734;9.112;2022-07-29T15:24:29;6.20;;;5.60;;
9524;SDS011;15940;48.734;9.112;2022-07-29T15:26:58;6.80;;;6.20;;
9524;SDS011;15940;48.734;9.112;2022-07-29T15:29:25;8.73;;;6.40;;